sensor_id;sensor_type;location;lat;lon;timestamp;P1;durP1;ratioP1;P2;durP2;ratioP2
53391;SDS011;41667;51.922;8.850;2023-05-14T00:02:03;7.22;;;5.20;;
53391;SDS011;41667;51.922;8.850;2023-05-14T00:04:28;7.75;;;6.22;;
53391;SDS011;41667;51.922;8.850;2023-05-14T00:06:53;5.88;;;5.28;;
53391;SDS011;41667;51.922;8.850;2023-05-14T00:09:18;6.50;;;5.68;;
53391;SDS011;41667;51.922;8.850;2023-05-14T00:11:43;11.33;;;5.90;;
53391;SDS011;41667;51.922;8.850;2023-05-14T00:14:09;5.97;;;5.30;;
53391;SDS011;41667;51.922;8.850;2023-05-14T00:16:34;8.20;;;5.53;;
53391;SDS011;41667;51.922;8.850;2023-05-14T00:18:59;13.33;;;6.60;;
53391;SDS011;41667;51.922;8.850;2023-05-14T00:21:24;10.98;;;6.22;;
53391;SDS011;41667;51.922;8.850;2023-05-14T00:23:49;14.43;;;6.78;;
53391;SDS011;41667;51.922;8.850;2023-05-14T00:26:14;6.50;;;5.82;;
53391;SDS011;41667;51.922;8.850;2023-05-14T00:28:40;7.82;;;6.15;;
53391;SDS011;41667;51.922;8.850;2023-05-14T00:31:05;7.38;;;5.43;;
53391;SDS011;41667;51.922;8.850;2023-05-14T00:33:30;14.00;;;9.60;;
53391;SDS011;41667;51.922;8.850;2023-05-14T00:35:55;7.30;;;6.35;;
53391;SDS011;41667;51.922;8.850;2023-05-14T00:38:20;7.05;;;5.57;;
53391;SDS011;41667;51.922;8.850;2023-05-14T00:40:47;11.57;;;6.38;;
53391;SDS011;41667;51.922;8.850;2023-05-14T00:43:19;6.18;;;5.57;;
53391;SDS011;41667;51.922;8.850;2023-05-14T00:45:44;6.05;;;5.45;;
53391;SDS011;41667;51.922;8.850;2023-05-14T00:48:09;9.18;;;6.65;;
53391;SDS011;41667;51.922;8.850;2023-05-14T00:50:35;9.30;;;6.83;;
53391;SDS011;41667;51.922;8.850;2023-05-14T00:53:00;13.55;;;6.05;;
53391;SDS011;41667;51.922;8.850;2023-05-14T00:55:25;8.20;;;6.47;;
53391;SDS011;41667;51.922;8.850;2023-05-14T00:57:52;19.30;;;6.45;;
53391;SDS011;41667;51.922;8.850;2023-05-14T01:00:18;7.72;;;5.80;;
53391;SDS011;41667;51.922;8.850;2023-05-14T01:02:43;7.67;;;6.23;;
53391;SDS011;41667;51.922;8.850;2023-05-14T01:05:08;8.35;;;5.55;;
53391;SDS011;41667;51.922;8.850;2023-05-14T01:07:45;6.33;;;5.57;;
53391;SDS011;41667;51.922;8.850;2023-05-14T01:10:13;6.28;;;5.35;;
53391;SDS011;41667;51.922;8.850;2023-05-14T01:12:51;7.57;;;5.57;;
53391;SDS011;41667;51.922;8.850;2023-05-14T01:15:21;9.35;;;6.07;;
53391;SDS011;41667;51.922;8.850;2023-05-14T01:17:49;7.75;;;5.97;;
53391;SDS011;41667;51.922;8.850;2023-05-14T01:20:15;7.85;;;6.10;;
53391;SDS011;41667;51.922;8.850;2023-05-14T01:22:41;6.17;;;5.57;;
53391;SDS011;41667;51.922;8.850;2023-05-14T01:25:06;6.80;;;5.80;;
53391;SDS011;41667;51.922;8.850;2023-05-14T01:30:08;8.15;;;5.25;;
53391;SDS011;41667;51.922;8.850;2023-05-14T01:32:37;7.30;;;5.90;;
53391;SDS011;41667;51.922;8.850;2023-05-14T01:35:03;6.18;;;5.25;;
53391;SDS011;41667;51.922;8.850;2023-05-14T01:37:28;6.75;;;6.00;;
53391;SDS011;41667;51.922;8.850;2023-05-14T01:39:54;7.00;;;5.68;;
53391;SDS011;41667;51.922;8.850;2023-05-14T01:42:19;7.13;;;5.80;;
53391;SDS011;41667;51.922;8.850;2023-05-14T01:44:45;6.45;;;5.85;;
53391;SDS011;41667;51.922;8.850;2023-05-14T01:47:11;8.77;;;5.20;;
53391;SDS011;41667;51.922;8.850;2023-05-14T01:49:36;6.90;;;5.40;;
53391;SDS011;41667;51.922;8.850;2023-05-14T01:52:01;6.65;;;5.28;;
53391;SDS011;41667;51.922;8.850;2023-05-14T01:54:26;6.23;;;5.63;;
53391;SDS011;41667;51.922;8.850;2023-05-14T01:56:51;7.40;;;5.80;;
53391;SDS011;41667;51.922;8.850;2023-05-14T01:59:16;6.15;;;5.03;;
53391;SDS011;41667;51.922;8.850;2023-05-14T02:01:42;7.30;;;5.17;;
53391;SDS011;41667;51.922;8.850;2023-05-14T02:04:07;6.97;;;5.40;;
53391;SDS011;41667;51.922;8.850;2023-05-14T02:06:32;7.23;;;5.83;;
53391;SDS011;41667;51.922;8.850;2023-05-14T02:08:57;7.57;;;5.53;;
53391;SDS011;41667;51.922;8.850;2023-05-14T02:11:22;6.57;;;5.20;;
53391;SDS011;41667;51.922;8.850;2023-05-14T02:13:47;7.05;;;5.47;;
53391;SDS011;41667;51.922;8.850;2023-05-14T02:16:13;8.27;;;5.60;;
53391;SDS011;41667;51.922;8.850;2023-05-14T02:18:38;6.45;;;5.63;;
53391;SDS011;41667;51.922;8.850;2023-05-14T02:21:03;6.50;;;5.47;;
53391;SDS011;41667;51.922;8.850;2023-05-14T02:23:28;5.85;;;4.90;;
53391;SDS011;41667;51.922;8.850;2023-05-14T02:25:53;7.00;;;5.47;;
53391;SDS011;41667;51.922;8.850;2023-05-14T02:28:18;8.10;;;5.77;;
53391;SDS011;41667;51.922;8.850;2023-05-14T02:30:44;6.07;;;5.32;;
53391;SDS011;41667;51.922;8.850;2023-05-14T02:33:09;9.63;;;6.30;;
53391;SDS011;41667;51.922;8.850;2023-05-14T02:35:34;8.95;;;6.32;;
53391;SDS011;41667;51.922;8.850;2023-05-14T02:38:00;5.82;;;5.13;;
53391;SDS011;41667;51.922;8.850;2023-05-14T02:40:25;8.00;;;6.15;;
53391;SDS011;41667;51.922;8.850;2023-05-14T02:42:51;6.30;;;5.57;;
53391;SDS011;41667;51.922;8.850;2023-05-14T02:45:16;6.68;;;5.97;;
53391;SDS011;41667;51.922;8.850;2023-05-14T02:47:41;8.90;;;6.30;;
53391;SDS011;41667;51.922;8.850;2023-05-14T02:50:07;6.75;;;6.05;;
53391;SDS011;41667;51.922;8.850;2023-05-14T02:52:32;10.27;;;5.75;;
53391;SDS011;41667;51.922;8.850;2023-05-14T02:54:58;6.40;;;5.70;;
53391;SDS011;41667;51.922;8.850;2023-05-14T02:57:23;6.65;;;5.80;;
53391;SDS011;41667;51.922;8.850;2023-05-14T02:59:48;8.52;;;5.70;;
53391;SDS011;41667;51.922;8.850;2023-05-14T03:02:13;7.25;;;5.60;;
53391;SDS011;41667;51.922;8.850;2023-05-14T03:04:38;8.45;;;5.88;;
53391;SDS011;41667;51.922;8.850;2023-05-14T03:07:03;9.50;;;5.70;;
53391;SDS011;41667;51.922;8.850;2023-05-14T03:09:28;11.65;;;5.80;;
53391;SDS011;41667;51.922;8.850;2023-05-14T03:11:54;7.13;;;6.38;;
53391;SDS011;41667;51.922;8.850;2023-05-14T03:14:19;8.18;;;6.03;;
53391;SDS011;41667;51.922;8.850;2023-05-14T03:16:44;8.25;;;6.13;;
53391;SDS011;41667;51.922;8.850;2023-05-14T03:19:09;6.85;;;5.75;;
53391;SDS011;41667;51.922;8.850;2023-05-14T03:21:35;7.18;;;5.85;;
53391;SDS011;41667;51.922;8.850;2023-05-14T03:24:00;10.27;;;6.25;;
53391;SDS011;41667;51.922;8.850;2023-05-14T03:26:25;10.83;;;6.33;;
53391;SDS011;41667;51.922;8.850;2023-05-14T03:28:50;5.93;;;5.38;;
53391;SDS011;41667;51.922;8.850;2023-05-14T03:31:15;8.32;;;5.63;;
53391;SDS011;41667;51.922;8.850;2023-05-14T03:33:40;6.10;;;5.45;;
53391;SDS011;41667;51.922;8.850;2023-05-14T03:36:06;7.83;;;5.27;;
53391;SDS011;41667;51.922;8.850;2023-05-14T03:38:31;6.22;;;5.63;;
53391;SDS011;41667;51.922;8.850;2023-05-14T03:40:56;8.50;;;6.23;;
53391;SDS011;41667;51.922;8.850;2023-05-14T03:43:21;7.18;;;6.43;;
53391;SDS011;41667;51.922;8.850;2023-05-14T03:45:47;8.18;;;6.72;;
53391;SDS011;41667;51.922;8.850;2023-05-14T03:48:16;10.02;;;6.90;;
53391;SDS011;41667;51.922;8.850;2023-05-14T03:50:41;10.00;;;6.78;;
53391;SDS011;41667;51.922;8.850;2023-05-14T03:53:06;9.48;;;6.72;;
53391;SDS011;41667;51.922;8.850;2023-05-14T03:55:31;7.07;;;6.22;;
53391;SDS011;41667;51.922;8.850;2023-05-14T03:57:56;7.00;;;6.13;;
53391;SDS011;41667;51.922;8.850;2023-05-14T04:00:21;7.57;;;6.03;;
53391;SDS011;41667;51.922;8.850;2023-05-14T04:02:46;8.30;;;6.73;;
53391;SDS011;41667;51.922;8.850;2023-05-14T04:05:12;7.07;;;6.37;;
53391;SDS011;41667;51.922;8.850;2023-05-14T04:07:37;11.38;;;7.35;;
53391;SDS011;41667;51.922;8.850;2023-05-14T04:10:02;7.80;;;7.00;;
53391;SDS011;41667;51.922;8.850;2023-05-14T04:12:28;8.38;;;6.80;;
53391;SDS011;41667;51.922;8.850;2023-05-14T04:14:53;8.40;;;6.53;;
53391;SDS011;41667;51.922;8.850;2023-05-14T04:17:18;11.27;;;6.95;;
53391;SDS011;41667;51.922;8.850;2023-05-14T04:19:43;18.38;;;7.47;;
53391;SDS011;41667;51.922;8.850;2023-05-14T04:22:08;7.90;;;6.60;;
53391;SDS011;41667;51.922;8.850;2023-05-14T04:24:33;7.90;;;7.05;;
53391;SDS011;41667;51.922;8.850;2023-05-14T04:26:58;9.67;;;6.47;;
53391;SDS011;41667;51.922;8.850;2023-05-14T04:29:23;8.43;;;6.88;;
53391;SDS011;41667;51.922;8.850;2023-05-14T04:31:49;8.40;;;7.07;;
53391;SDS011;41667;51.922;8.850;2023-05-14T04:34:14;10.25;;;7.47;;
53391;SDS011;41667;51.922;8.850;2023-05-14T04:36:39;8.93;;;7.07;;
53391;SDS011;41667;51.922;8.850;2023-05-14T04:39:04;7.25;;;6.55;;
53391;SDS011;41667;51.922;8.850;2023-05-14T04:41:30;8.48;;;6.88;;
53391;SDS011;41667;51.922;8.850;2023-05-14T04:43:55;9.25;;;7.15;;
53391;SDS011;41667;51.922;8.850;2023-05-14T04:46:20;11.00;;;7.60;;
53391;SDS011;41667;51.922;8.850;2023-05-14T04:48:46;8.60;;;7.40;;
53391;SDS011;41667;51.922;8.850;2023-05-14T04:51:12;8.30;;;7.05;;
53391;SDS011;41667;51.922;8.850;2023-05-14T04:53:37;9.50;;;7.00;;
53391;SDS011;41667;51.922;8.850;2023-05-14T04:56:02;8.57;;;6.85;;
53391;SDS011;41667;51.922;8.850;2023-05-14T04:58:27;13.05;;;7.22;;
53391;SDS011;41667;51.922;8.850;2023-05-14T05:00:55;9.73;;;7.95;;
53391;SDS011;41667;51.922;8.850;2023-05-14T05:03:20;9.63;;;7.30;;
53391;SDS011;41667;51.922;8.850;2023-05-14T05:05:45;12.35;;;7.80;;
53391;SDS011;41667;51.922;8.850;2023-05-14T05:08:10;9.55;;;7.78;;
53391;SDS011;41667;51.922;8.850;2023-05-14T05:10:35;10.27;;;7.15;;
53391;SDS011;41667;51.922;8.850;2023-05-14T05:13:01;8.73;;;7.20;;
53391;SDS011;41667;51.922;8.850;2023-05-14T05:15:26;10.55;;;7.65;;
53391;SDS011;41667;51.922;8.850;2023-05-14T05:17:51;8.70;;;7.70;;
53391;SDS011;41667;51.922;8.850;2023-05-14T05:20:16;10.23;;;6.97;;
53391;SDS011;41667;51.922;8.850;2023-05-14T05:22:41;7.47;;;6.68;;
53391;SDS011;41667;51.922;8.850;2023-05-14T05:25:06;11.43;;;7.68;;
53391;SDS011;41667;51.922;8.850;2023-05-14T05:27:32;12.90;;;7.47;;
53391;SDS011;41667;51.922;8.850;2023-05-14T05:29:59;10.87;;;7.77;;
53391;SDS011;41667;51.922;8.850;2023-05-14T05:32:25;8.63;;;7.57;;
53391;SDS011;41667;51.922;8.850;2023-05-14T05:34:50;9.23;;;7.78;;
53391;SDS011;41667;51.922;8.850;2023-05-14T05:37:16;10.55;;;7.88;;
53391;SDS011;41667;51.922;8.850;2023-05-14T05:39:41;10.50;;;7.32;;
53391;SDS011;41667;51.922;8.850;2023-05-14T05:42:06;8.00;;;7.13;;
53391;SDS011;41667;51.922;8.850;2023-05-14T05:44:31;8.63;;;6.63;;
53391;SDS011;41667;51.922;8.850;2023-05-14T05:46:56;7.57;;;6.80;;
53391;SDS011;41667;51.922;8.850;2023-05-14T05:49:22;8.30;;;7.38;;
53391;SDS011;41667;51.922;8.850;2023-05-14T05:51:47;8.55;;;7.10;;
53391;SDS011;41667;51.922;8.850;2023-05-14T05:54:12;7.53;;;6.55;;
53391;SDS011;41667;51.922;8.850;2023-05-14T05:56:37;11.75;;;6.50;;
53391;SDS011;41667;51.922;8.850;2023-05-14T05:59:02;7.47;;;6.65;;
53391;SDS011;41667;51.922;8.850;2023-05-14T06:01:28;7.25;;;6.43;;
53391;SDS011;41667;51.922;8.850;2023-05-14T06:03:53;7.72;;;6.03;;
53391;SDS011;41667;51.922;8.850;2023-05-14T06:06:18;9.20;;;6.28;;
53391;SDS011;41667;51.922;8.850;2023-05-14T06:08:43;7.33;;;5.73;;
53391;SDS011;41667;51.922;8.850;2023-05-14T06:11:08;6.18;;;5.43;;
53391;SDS011;41667;51.922;8.850;2023-05-14T06:13:34;6.40;;;5.27;;
53391;SDS011;41667;51.922;8.850;2023-05-14T06:15:59;8.13;;;6.10;;
53391;SDS011;41667;51.922;8.850;2023-05-14T06:18:24;8.98;;;6.68;;
53391;SDS011;41667;51.922;8.850;2023-05-14T06:20:49;6.68;;;6.07;;
53391;SDS011;41667;51.922;8.850;2023-05-14T06:23:14;7.00;;;5.97;;
53391;SDS011;41667;51.922;8.850;2023-05-14T06:25:39;5.43;;;4.82;;
53391;SDS011;41667;51.922;8.850;2023-05-14T06:28:04;6.18;;;5.57;;
53391;SDS011;41667;51.922;8.850;2023-05-14T06:30:30;5.97;;;5.20;;
53391;SDS011;41667;51.922;8.850;2023-05-14T06:32:55;6.93;;;6.22;;
53391;SDS011;41667;51.922;8.850;2023-05-14T06:35:20;6.47;;;5.55;;
53391;SDS011;41667;51.922;8.850;2023-05-14T06:37:45;5.78;;;5.18;;
53391;SDS011;41667;51.922;8.850;2023-05-14T06:40:11;6.75;;;5.18;;
53391;SDS011;41667;51.922;8.850;2023-05-14T06:42:36;5.95;;;5.28;;
53391;SDS011;41667;51.922;8.850;2023-05-14T06:45:01;5.53;;;5.03;;
53391;SDS011;41667;51.922;8.850;2023-05-14T06:47:26;5.33;;;4.83;;
53391;SDS011;41667;51.922;8.850;2023-05-14T06:49:51;6.28;;;4.45;;
53391;SDS011;41667;51.922;8.850;2023-05-14T06:52:17;5.30;;;4.70;;
53391;SDS011;41667;51.922;8.850;2023-05-14T06:54:42;5.30;;;4.80;;
53391;SDS011;41667;51.922;8.850;2023-05-14T06:57:07;5.28;;;4.68;;
53391;SDS011;41667;51.922;8.850;2023-05-14T06:59:32;5.70;;;4.28;;
53391;SDS011;41667;51.922;8.850;2023-05-14T07:01:57;7.07;;;4.78;;
53391;SDS011;41667;51.922;8.850;2023-05-14T07:04:22;4.90;;;4.40;;
53391;SDS011;41667;51.922;8.850;2023-05-14T07:06:47;4.93;;;4.07;;
53391;SDS011;41667;51.922;8.850;2023-05-14T07:09:12;4.35;;;3.90;;
53391;SDS011;41667;51.922;8.850;2023-05-14T07:11:38;5.03;;;4.15;;
53391;SDS011;41667;51.922;8.850;2023-05-14T07:14:03;4.07;;;3.78;;
53391;SDS011;41667;51.922;8.850;2023-05-14T07:16:28;4.57;;;3.40;;
53391;SDS011;41667;51.922;8.850;2023-05-14T07:18:53;6.15;;;3.28;;
53391;SDS011;41667;51.922;8.850;2023-05-14T07:21:18;3.35;;;3.10;;
53391;SDS011;41667;51.922;8.850;2023-05-14T07:23:43;3.67;;;3.38;;
53391;SDS011;41667;51.922;8.850;2023-05-14T07:26:09;5.97;;;3.70;;
53391;SDS011;41667;51.922;8.850;2023-05-14T07:28:34;3.83;;;2.95;;
53391;SDS011;41667;51.922;8.850;2023-05-14T07:30:59;3.75;;;3.45;;
53391;SDS011;41667;51.922;8.850;2023-05-14T07:33:25;3.58;;;2.88;;
53391;SDS011;41667;51.922;8.850;2023-05-14T07:35:50;3.73;;;3.20;;
53391;SDS011;41667;51.922;8.850;2023-05-14T07:38:15;3.03;;;2.72;;
53391;SDS011;41667;51.922;8.850;2023-05-14T07:40:41;3.40;;;2.80;;
53391;SDS011;41667;51.922;8.850;2023-05-14T07:43:06;3.63;;;3.00;;
53391;SDS011;41667;51.922;8.850;2023-05-14T07:45:31;4.00;;;2.60;;
53391;SDS011;41667;51.922;8.850;2023-05-14T07:47:56;3.63;;;3.00;;
53391;SDS011;41667;51.922;8.850;2023-05-14T07:50:21;5.20;;;3.35;;
53391;SDS011;41667;51.922;8.850;2023-05-14T07:52:47;3.05;;;2.85;;
53391;SDS011;41667;51.922;8.850;2023-05-14T07:55:12;3.28;;;2.83;;
53391;SDS011;41667;51.922;8.850;2023-05-14T07:57:37;3.13;;;2.90;;
53391;SDS011;41667;51.922;8.850;2023-05-14T08:00:03;3.15;;;2.90;;
53391;SDS011;41667;51.922;8.850;2023-05-14T08:02:28;4.03;;;3.40;;
53391;SDS011;41667;51.922;8.850;2023-05-14T08:04:53;5.90;;;3.40;;
53391;SDS011;41667;51.922;8.850;2023-05-14T08:07:18;3.03;;;2.83;;
53391;SDS011;41667;51.922;8.850;2023-05-14T08:09:44;3.10;;;2.80;;
53391;SDS011;41667;51.922;8.850;2023-05-14T08:12:09;2.87;;;2.67;;
53391;SDS011;41667;51.922;8.850;2023-05-14T08:14:34;4.00;;;3.40;;
53391;SDS011;41667;51.922;8.850;2023-05-14T08:16:59;2.80;;;2.60;;
53391;SDS011;41667;51.922;8.850;2023-05-14T08:19:24;3.40;;;3.10;;
53391;SDS011;41667;51.922;8.850;2023-05-14T08:21:51;3.47;;;2.67;;
53391;SDS011;41667;51.922;8.850;2023-05-14T08:24:16;2.90;;;2.58;;
53391;SDS011;41667;51.922;8.850;2023-05-14T08:26:42;2.70;;;2.50;;
53391;SDS011;41667;51.922;8.850;2023-05-14T08:29:07;2.88;;;2.60;;
53391;SDS011;41667;51.922;8.850;2023-05-14T08:31:32;5.68;;;2.85;;
53391;SDS011;41667;51.922;8.850;2023-05-14T08:33:57;3.00;;;2.65;;
53391;SDS011;41667;51.922;8.850;2023-05-14T08:36:22;2.80;;;2.55;;
53391;SDS011;41667;51.922;8.850;2023-05-14T08:38:47;3.05;;;2.67;;
53391;SDS011;41667;51.922;8.850;2023-05-14T08:41:14;2.40;;;2.30;;
53391;SDS011;41667;51.922;8.850;2023-05-14T08:46:23;2.58;;;2.20;;
53391;SDS011;41667;51.922;8.850;2023-05-14T08:48:54;2.70;;;2.50;;
53391;SDS011;41667;51.922;8.850;2023-05-14T08:51:20;3.85;;;2.28;;
53391;SDS011;41667;51.922;8.850;2023-05-14T08:53:46;2.50;;;2.30;;
53391;SDS011;41667;51.922;8.850;2023-05-14T08:56:11;2.70;;;2.50;;
53391;SDS011;41667;51.922;8.850;2023-05-14T08:58:37;2.72;;;2.05;;
53391;SDS011;41667;51.922;8.850;2023-05-14T09:01:02;5.15;;;2.33;;
53391;SDS011;41667;51.922;8.850;2023-05-14T09:03:27;2.03;;;1.92;;
53391;SDS011;41667;51.922;8.850;2023-05-14T09:05:52;2.47;;;2.28;;
53391;SDS011;41667;51.922;8.850;2023-05-14T09:08:18;2.50;;;2.30;;
53391;SDS011;41667;51.922;8.850;2023-05-14T09:10:43;2.60;;;2.40;;
53391;SDS011;41667;51.922;8.850;2023-05-14T09:13:08;2.28;;;2.17;;
53391;SDS011;41667;51.922;8.850;2023-05-14T09:15:35;2.28;;;2.00;;
53391;SDS011;41667;51.922;8.850;2023-05-14T09:18:00;3.17;;;2.72;;
53391;SDS011;41667;51.922;8.850;2023-05-14T09:20:26;2.80;;;2.55;;
53391;SDS011;41667;51.922;8.850;2023-05-14T09:22:52;2.97;;;2.70;;
53391;SDS011;41667;51.922;8.850;2023-05-14T09:25:18;2.75;;;2.45;;
53391;SDS011;41667;51.922;8.850;2023-05-14T09:27:44;2.58;;;2.42;;
53391;SDS011;41667;51.922;8.850;2023-05-14T09:30:11;2.78;;;2.40;;
53391;SDS011;41667;51.922;8.850;2023-05-14T09:32:40;3.15;;;2.83;;
53391;SDS011;41667;51.922;8.850;2023-05-14T09:35:23;3.47;;;2.72;;
53391;SDS011;41667;51.922;8.850;2023-05-14T09:37:49;3.00;;;2.70;;
53391;SDS011;41667;51.922;8.850;2023-05-14T09:40:15;3.05;;;2.83;;
53391;SDS011;41667;51.922;8.850;2023-05-14T09:42:40;3.40;;;2.78;;
53391;SDS011;41667;51.922;8.850;2023-05-14T09:45:06;2.43;;;2.23;;
53391;SDS011;41667;51.922;8.850;2023-05-14T09:47:31;2.45;;;2.25;;
53391;SDS011;41667;51.922;8.850;2023-05-14T09:49:56;2.43;;;2.23;;
53391;SDS011;41667;51.922;8.850;2023-05-14T09:52:25;3.37;;;2.03;;
53391;SDS011;41667;51.922;8.850;2023-05-14T09:54:50;3.58;;;2.22;;
53391;SDS011;41667;51.922;8.850;2023-05-14T09:57:16;3.50;;;2.17;;
53391;SDS011;41667;51.922;8.850;2023-05-14T09:59:41;1.90;;;1.70;;
53391;SDS011;41667;51.922;8.850;2023-05-14T10:02:06;2.30;;;2.10;;
53391;SDS011;41667;51.922;8.850;2023-05-14T10:04:33;1.95;;;1.85;;
53391;SDS011;41667;51.922;8.850;2023-05-14T10:06:59;2.42;;;2.17;;
53391;SDS011;41667;51.922;8.850;2023-05-14T10:09:24;2.40;;;2.25;;
53391;SDS011;41667;51.922;8.850;2023-05-14T10:11:52;2.60;;;2.05;;
53391;SDS011;41667;51.922;8.850;2023-05-14T10:14:19;2.10;;;1.90;;
53391;SDS011;41667;51.922;8.850;2023-05-14T10:16:47;2.22;;;2.03;;
53391;SDS011;41667;51.922;8.850;2023-05-14T10:19:14;1.98;;;1.80;;
53391;SDS011;41667;51.922;8.850;2023-05-14T10:21:40;1.88;;;1.77;;
53391;SDS011;41667;51.922;8.850;2023-05-14T10:24:05;2.40;;;2.20;;
53391;SDS011;41667;51.922;8.850;2023-05-14T10:26:31;1.73;;;1.63;;
53391;SDS011;41667;51.922;8.850;2023-05-14T10:28:57;1.92;;;1.75;;
53391;SDS011;41667;51.922;8.850;2023-05-14T10:31:24;1.90;;;1.80;;
53391;SDS011;41667;51.922;8.850;2023-05-14T10:34:08;3.03;;;1.95;;
53391;SDS011;41667;51.922;8.850;2023-05-14T10:36:53;2.20;;;2.00;;
53391;SDS011;41667;51.922;8.850;2023-05-14T10:39:18;2.08;;;1.88;;
53391;SDS011;41667;51.922;8.850;2023-05-14T10:41:43;2.30;;;2.10;;
53391;SDS011;41667;51.922;8.850;2023-05-14T10:44:08;2.78;;;2.15;;
53391;SDS011;41667;51.922;8.850;2023-05-14T10:46:34;2.70;;;2.10;;
53391;SDS011;41667;51.922;8.850;2023-05-14T10:48:59;2.45;;;1.90;;
53391;SDS011;41667;51.922;8.850;2023-05-14T10:51:24;2.20;;;2.00;;
53391;SDS011;41667;51.922;8.850;2023-05-14T10:53:50;3.28;;;2.00;;
53391;SDS011;41667;51.922;8.850;2023-05-14T10:56:16;2.40;;;2.20;;
53391;SDS011;41667;51.922;8.850;2023-05-14T10:58:42;4.23;;;2.23;;
53391;SDS011;41667;51.922;8.850;2023-05-14T11:01:08;3.63;;;2.20;;
53391;SDS011;41667;51.922;8.850;2023-05-14T11:03:38;1.90;;;1.80;;
53391;SDS011;41667;51.922;8.850;2023-05-14T11:06:03;1.75;;;1.65;;
53391;SDS011;41667;51.922;8.850;2023-05-14T11:08:29;1.73;;;1.63;;
53391;SDS011;41667;51.922;8.850;2023-05-14T11:10:54;1.85;;;1.73;;
53391;SDS011;41667;51.922;8.850;2023-05-14T11:13:20;1.60;;;1.50;;
53391;SDS011;41667;51.922;8.850;2023-05-14T11:15:45;1.45;;;1.45;;
53391;SDS011;41667;51.922;8.850;2023-05-14T11:18:11;1.55;;;1.45;;
53391;SDS011;41667;51.922;8.850;2023-05-14T11:20:37;1.80;;;1.70;;
53391;SDS011;41667;51.922;8.850;2023-05-14T11:23:02;2.08;;;1.98;;
53391;SDS011;41667;51.922;8.850;2023-05-14T11:25:27;1.83;;;1.73;;
53391;SDS011;41667;51.922;8.850;2023-05-14T11:27:52;2.03;;;1.73;;
53391;SDS011;41667;51.922;8.850;2023-05-14T11:30:22;1.65;;;1.55;;
53391;SDS011;41667;51.922;8.850;2023-05-14T11:32:47;2.00;;;1.77;;
53391;SDS011;41667;51.922;8.850;2023-05-14T11:35:13;2.47;;;1.55;;
53391;SDS011;41667;51.922;8.850;2023-05-14T11:37:38;2.67;;;1.35;;
53391;SDS011;41667;51.922;8.850;2023-05-14T11:40:07;1.60;;;1.50;;
53391;SDS011;41667;51.922;8.850;2023-05-14T11:42:33;1.13;;;1.13;;
53391;SDS011;41667;51.922;8.850;2023-05-14T11:45:00;1.80;;;1.70;;
53391;SDS011;41667;51.922;8.850;2023-05-14T11:47:25;1.43;;;1.33;;
53391;SDS011;41667;51.922;8.850;2023-05-14T11:49:53;1.67;;;1.58;;
53391;SDS011;41667;51.922;8.850;2023-05-14T11:52:18;1.50;;;1.40;;
53391;SDS011;41667;51.922;8.850;2023-05-14T11:54:45;2.70;;;2.03;;
53391;SDS011;41667;51.922;8.850;2023-05-14T11:57:11;1.70;;;1.60;;
53391;SDS011;41667;51.922;8.850;2023-05-14T11:59:37;1.30;;;1.30;;
53391;SDS011;41667;51.922;8.850;2023-05-14T12:02:02;1.80;;;1.70;;
53391;SDS011;41667;51.922;8.850;2023-05-14T12:04:31;3.33;;;2.10;;
53391;SDS011;41667;51.922;8.850;2023-05-14T12:06:57;2.03;;;1.80;;
53391;SDS011;41667;51.922;8.850;2023-05-14T12:09:22;1.58;;;1.48;;
53391;SDS011;41667;51.922;8.850;2023-05-14T12:11:48;2.47;;;1.47;;
53391;SDS011;41667;51.922;8.850;2023-05-14T12:14:14;4.07;;;1.80;;
53391;SDS011;41667;51.922;8.850;2023-05-14T12:16:40;1.80;;;1.48;;
53391;SDS011;41667;51.922;8.850;2023-05-14T12:19:07;1.73;;;1.70;;
53391;SDS011;41667;51.922;8.850;2023-05-14T12:21:33;1.77;;;1.67;;
53391;SDS011;41667;51.922;8.850;2023-05-14T12:23:58;1.95;;;1.77;;
53391;SDS011;41667;51.922;8.850;2023-05-14T12:26:24;1.80;;;1.60;;
53391;SDS011;41667;51.922;8.850;2023-05-14T12:28:49;1.63;;;1.52;;
53391;SDS011;41667;51.922;8.850;2023-05-14T12:31:14;2.50;;;1.50;;
53391;SDS011;41667;51.922;8.850;2023-05-14T12:33:39;1.70;;;1.60;;
53391;SDS011;41667;51.922;8.850;2023-05-14T12:36:04;1.60;;;1.50;;
53391;SDS011;41667;51.922;8.850;2023-05-14T12:38:30;1.70;;;1.60;;
53391;SDS011;41667;51.922;8.850;2023-05-14T12:40:55;1.60;;;1.50;;
53391;SDS011;41667;51.922;8.850;2023-05-14T12:43:20;1.40;;;1.40;;
53391;SDS011;41667;51.922;8.850;2023-05-14T12:45:46;3.30;;;1.60;;
53391;SDS011;41667;51.922;8.850;2023-05-14T12:48:11;1.70;;;1.60;;
53391;SDS011;41667;51.922;8.850;2023-05-14T12:50:37;2.15;;;1.50;;
53391;SDS011;41667;51.922;8.850;2023-05-14T12:53:02;1.92;;;1.73;;
53391;SDS011;41667;51.922;8.850;2023-05-14T12:55:27;1.95;;;1.73;;
53391;SDS011;41667;51.922;8.850;2023-05-14T12:57:53;1.60;;;1.50;;
53391;SDS011;41667;51.922;8.850;2023-05-14T13:00:18;1.50;;;1.48;;
53391;SDS011;41667;51.922;8.850;2023-05-14T13:02:43;4.35;;;1.70;;
53391;SDS011;41667;51.922;8.850;2023-05-14T13:05:09;2.30;;;1.60;;
53391;SDS011;41667;51.922;8.850;2023-05-14T13:07:34;1.38;;;1.38;;
53391;SDS011;41667;51.922;8.850;2023-05-14T13:10:00;1.60;;;1.50;;
53391;SDS011;41667;51.922;8.850;2023-05-14T13:12:25;1.75;;;1.65;;
53391;SDS011;41667;51.922;8.850;2023-05-14T13:14:50;2.40;;;1.77;;
53391;SDS011;41667;51.922;8.850;2023-05-14T13:17:15;1.55;;;1.45;;
53391;SDS011;41667;51.922;8.850;2023-05-14T13:19:41;1.70;;;1.50;;
53391;SDS011;41667;51.922;8.850;2023-05-14T13:22:06;1.70;;;1.60;;
53391;SDS011;41667;51.922;8.850;2023-05-14T13:24:31;2.85;;;1.60;;
53391;SDS011;41667;51.922;8.850;2023-05-14T13:26:56;1.23;;;1.17;;
53391;SDS011;41667;51.922;8.850;2023-05-14T13:29:21;1.53;;;1.43;;
53391;SDS011;41667;51.922;8.850;2023-05-14T13:31:46;1.83;;;1.67;;
53391;SDS011;41667;51.922;8.850;2023-05-14T13:34:12;2.13;;;1.93;;
53391;SDS011;41667;51.922;8.850;2023-05-14T13:36:37;1.97;;;1.70;;
53391;SDS011;41667;51.922;8.850;2023-05-14T13:39:04;3.35;;;1.92;;
53391;SDS011;41667;51.922;8.850;2023-05-14T13:41:30;1.90;;;1.80;;
53391;SDS011;41667;51.922;8.850;2023-05-14T13:43:58;2.05;;;1.92;;
53391;SDS011;41667;51.922;8.850;2023-05-14T13:46:24;2.23;;;1.53;;
53391;SDS011;41667;51.922;8.850;2023-05-14T13:48:49;2.50;;;1.97;;
53391;SDS011;41667;51.922;8.850;2023-05-14T13:51:14;2.38;;;1.60;;
53391;SDS011;41667;51.922;8.850;2023-05-14T13:53:39;2.40;;;1.77;;
53391;SDS011;41667;51.922;8.850;2023-05-14T13:56:04;2.15;;;1.92;;
53391;SDS011;41667;51.922;8.850;2023-05-14T13:58:30;2.88;;;2.05;;
53391;SDS011;41667;51.922;8.850;2023-05-14T14:00:55;2.30;;;2.10;;
53391;SDS011;41667;51.922;8.850;2023-05-14T14:03:20;2.25;;;2.03;;
53391;SDS011;41667;51.922;8.850;2023-05-14T14:05:46;2.08;;;1.98;;
53391;SDS011;41667;51.922;8.850;2023-05-14T14:08:11;3.95;;;2.58;;
53391;SDS011;41667;51.922;8.850;2023-05-14T14:10:36;2.83;;;2.55;;
53391;SDS011;41667;51.922;8.850;2023-05-14T14:13:03;3.55;;;3.20;;
53391;SDS011;41667;51.922;8.850;2023-05-14T14:15:28;6.05;;;3.03;;
53391;SDS011;41667;51.922;8.850;2023-05-14T14:17:53;6.70;;;3.10;;
53391;SDS011;41667;51.922;8.850;2023-05-14T14:20:18;2.90;;;2.70;;
53391;SDS011;41667;51.922;8.850;2023-05-14T14:22:43;6.05;;;2.80;;
53391;SDS011;41667;51.922;8.850;2023-05-14T14:25:09;3.50;;;2.77;;
53391;SDS011;41667;51.922;8.850;2023-05-14T14:27:34;4.32;;;3.13;;
53391;SDS011;41667;51.922;8.850;2023-05-14T14:30:03;5.13;;;2.78;;
53391;SDS011;41667;51.922;8.850;2023-05-14T14:32:28;3.22;;;2.72;;
53391;SDS011;41667;51.922;8.850;2023-05-14T14:34:53;5.10;;;3.35;;
53391;SDS011;41667;51.922;8.850;2023-05-14T14:37:18;14.07;;;4.83;;
53391;SDS011;41667;51.922;8.850;2023-05-14T14:39:43;3.15;;;2.95;;
53391;SDS011;41667;51.922;8.850;2023-05-14T14:42:08;3.43;;;2.77;;